Minot Air Force Base
KMIB : now visible

Airfield :











YOU CAN JOIN US ON...

 
LOGIN :

Register | Disclaimer

   EN    FR    IT 

 









Legend :    VFR   Marginal VFR   IFR   Intensive IFR   Very Intensive IFR
Visi :
Ceiling :
>= 8 km
>= 3000ft
5 to 8 km
1000 to 3000 ft
1500m to 5 km
500 to 1000 ft
800 to 1500m
200 to 500 ft
< 800m
< 200 ft
Symbols :   Thunderstorms  Fog  Heavy snow  Heavy precipitations  Wind > 20 kt






- Airport Elevation : 1667 ft


KMIB - Minot Air Force Base

CURRENT METAR :
  • 220541Z AUTO 02005KT 10SM OVC030 M03/M06 A3019 RMK AO2 SLP252 $

EXPIRED METARs :
  • 220456Z AUTO 00000KT 10SM OVC029 M03/M07 A3018 RMK AO2 CIG 028 RWY12 SLP250 T10321067 $
  • 220356Z AUTO 04003KT 10SM OVC029 M03/M07 A3017 RMK AO2 CIG 028 RWY12 SLP247 T10311067 $
  • 220336Z AUTO 00000KT 10SM OVC029 M03/M07 A3017 RMK AO2 SLP247 $
  • 220256Z AUTO 07003KT 10SM FEW030 M04/M07 A3015 RMK AO2 SLP241 T10401073 50014 $

TAF TAF KMIB
Valid from the 22 at 01:00 until the 23 at 07:00 UTC


220100Z 2201/2307 VRB06KT 9999 SCT020 QNH3009INS
BECMG 2205/2206 VRB06KT 9999 BKN015 QNH3020INS
BECMG 2217/2218 36010G15KT 3200 -SN BKN008 QNH3028INS
BECMG 2304/2305 33012G18KT 3200 -SN BKN030 QNH3039INS TXM01/2221Z TNM05/2212Z
KZMP FIR / North America



MET'MAP, your aeronautical weather chart ! - Copyright ORBIFLY December 2007 - Disclaimer

ORBIFLY MET'MAP TEAM :

Programming & Development : Alexandra Zaïnal
Concept & original design : Baudouin d'Aumeries
Assistance for programming : Marc-Olivier Méhu
Technical & hardware support : Manuel Goepfert

Contact : metmap@orbifly.com




SOURCES & CREDITS :

   NOAA       Earth
Advisory